Time;durP1;ratioP1;P1;durP2;ratioP2;P2;SDS_P1;SDS_P2;PMS_P1;PMS_P2;Temp;Humidity;BMP_temperature;BMP_pressure;BME280_temperature;BME280_humidity;BME280_pressure;Samples;Min_cycle;Max_cycle;Signal;HPM_P1;HPM_P2
2021/01/20 00:00:34;;;;;;;3.07;2.67;;;;;;;;;;5073425;28;20237;-78
2021/01/20 00:03:00;;;;;;;3.53;3.03;;;;;;;;;;5073134;28;20257;-79
2021/01/20 00:05:26;;;;;;;3.07;2.73;;;;;;;;;;5073641;28;20226;-79
2021/01/20 00:07:52;;;;;;;3.33;2.87;;;;;;;;;;5073448;28;20234;-80
2021/01/20 00:10:18;;;;;;;5.20;2.77;;;;;;;;;;5073105;28;20234;-79
2021/01/20 00:12:46;;;;;;;2.47;2.27;;;;;;;;;;5073143;28;20222;-79
2021/01/20 00:15:12;;;;;;;2.80;2.60;;;;;;;;;;5073339;28;20538;-79
2021/01/20 00:17:39;;;;;;;2.60;2.40;;;;;;;;;;5055573;28;20233;-80
2021/01/20 00:20:06;;;;;;;2.87;2.67;;;;;;;;;;5075953;28;20233;-78
2021/01/20 00:22:32;;;;;;;2.43;2.23;;;;;;;;;;5076994;28;20254;-81
2021/01/20 00:24:58;;;;;;;2.70;2.50;;;;;;;;;;5076561;28;20651;-79
2021/01/20 00:27:24;;;;;;;2.97;2.60;;;;;;;;;;5076676;28;20233;-81
2021/01/20 00:29:51;;;;;;;2.63;2.43;;;;;;;;;;5076305;28;20230;-82
2021/01/20 00:32:17;;;;;;;2.30;2.20;;;;;;;;;;5077039;28;20238;-82
2021/01/20 00:34:43;;;;;;;2.37;2.27;;;;;;;;;;5076607;28;20213;-82
2021/01/20 00:37:09;;;;;;;2.50;2.33;;;;;;;;;;5076672;28;20535;-81
2021/01/20 00:39:35;;;;;;;2.47;2.27;;;;;;;;;;5076411;28;20230;-82
2021/01/20 00:42:01;;;;;;;2.50;2.30;;;;;;;;;;5076744;28;20253;-81
2021/01/20 00:44:27;;;;;;;2.97;2.43;;;;;;;;;;5076535;28;20207;-83
2021/01/20 00:46:54;;;;;;;2.60;2.30;;;;;;;;;;5076306;28;20438;-81
2021/01/20 00:49:20;;;;;;;2.80;2.47;;;;;;;;;;5075978;28;20246;-83
2021/01/20 00:51:46;;;;;;;2.40;2.30;;;;;;;;;;5058848;28;20233;-83
2021/01/20 00:54:13;;;;;;;2.40;2.20;;;;;;;;;;5075993;28;20712;-83
2021/01/20 00:56:39;;;;;;;2.73;2.50;;;;;;;;;;5076547;28;20233;-81
2021/01/20 00:59:05;;;;;;;2.83;2.60;;;;;;;;;;5076234;28;20741;-82
2021/01/20 01:01:31;;;;;;;2.57;2.37;;;;;;;;;;5076069;28;20280;-84
2021/01/20 01:03:58;;;;;;;2.27;2.07;;;;;;;;;;5075882;28;20518;-82
2021/01/20 01:06:24;;;;;;;2.63;2.27;;;;;;;;;;5076168;28;20532;-80
2021/01/20 01:08:50;;;;;;;3.00;2.70;;;;;;;;;;5075983;28;20249;-83
2021/01/20 01:11:16;;;;;;;2.73;2.50;;;;;;;;;;5076340;28;20245;-82
2021/01/20 01:13:42;;;;;;;2.70;2.50;;;;;;;;;;5075131;28;20234;-81
2021/01/20 01:16:08;;;;;;;3.20;2.73;;;;;;;;;;5075468;28;20237;-80
2021/01/20 01:18:34;;;;;;;2.93;2.60;;;;;;;;;;5075521;28;20272;-80
2021/01/20 01:21:01;;;;;;;2.63;2.53;;;;;;;;;;5075744;28;20234;-81
2021/01/20 01:23:27;;;;;;;3.60;2.80;;;;;;;;;;5075816;28;20651;-80
2021/01/20 01:25:54;;;;;;;5.77;3.83;;;;;;;;;;5075734;28;20230;-80
2021/01/20 01:28:20;;;;;;;13.70;5.67;;;;;;;;;;5057610;28;20214;-80
2021/01/20 01:30:46;;;;;;;4.33;3.20;;;;;;;;;;5075098;28;20222;-80
2021/01/20 01:33:12;;;;;;;2.93;2.67;;;;;;;;;;5075421;28;20227;-81
2021/01/20 01:35:38;;;;;;;3.50;2.63;;;;;;;;;;5075119;28;20236;-80
2021/01/20 01:38:05;;;;;;;2.77;2.57;;;;;;;;;;5075353;28;20619;-80
2021/01/20 01:40:31;;;;;;;2.70;2.50;;;;;;;;;;5075091;28;20233;-80
2021/01/20 01:42:57;;;;;;;2.87;2.33;;;;;;;;;;5075230;28;20269;-80
2021/01/20 01:45:23;;;;;;;3.00;2.63;;;;;;;;;;5075434;28;20234;-80
2021/01/20 01:47:50;;;;;;;3.07;2.77;;;;;;;;;;5074815;28;20234;-79
2021/01/20 01:50:16;;;;;;;3.37;2.73;;;;;;;;;;5074848;28;20226;-79
2021/01/20 01:52:43;;;;;;;2.70;2.50;;;;;;;;;;5057355;28;20229;-79
2021/01/20 01:55:10;;;;;;;3.67;2.50;;;;;;;;;;5075146;28;20622;-80
2021/01/20 01:57:37;;;;;;;2.60;2.40;;;;;;;;;;5075541;28;20262;-80
2021/01/20 02:00:05;;;;;;;2.67;2.47;;;;;;;;;;5074917;28;20202;-80
2021/01/20 02:02:31;;;;;;;4.07;2.97;;;;;;;;;;5074699;28;20520;-80
2021/01/20 02:04:57;;;;;;;3.20;2.73;;;;;;;;;;5074033;28;20226;-80
2021/01/20 02:07:26;;;;;;;2.57;2.37;;;;;;;;;;5074926;28;20637;-79
2021/01/20 02:09:52;;;;;;;2.93;2.70;;;;;;;;;;5075009;28;20226;-80
2021/01/20 02:12:45;;;;;;;3.63;2.90;;;;;;;;;;5074856;28;20234;-80
2021/01/20 02:15:17;;;;;;;3.23;2.50;;;;;;;;;;5074644;28;20864;-80
2021/01/20 02:17:44;;;;;;;3.77;2.97;;;;;;;;;;5074328;28;20234;-79
2021/01/20 02:20:29;;;;;;;3.57;2.83;;;;;;;;;;5074468;28;20233;-79
2021/01/20 02:22:56;;;;;;;2.43;2.30;;;;;;;;;;5074324;28;20680;-80
2021/01/20 02:25:49;;;;;;;2.60;2.40;;;;;;;;;;5074188;28;20241;-80
2021/01/20 02:28:17;;;;;;;2.80;2.03;;;;;;;;;;5026669;28;20303;-80
2021/01/20 02:30:45;;;;;;;2.93;2.33;;;;;;;;;;5073978;28;20206;-80
2021/01/20 02:33:14;;;;;;;3.70;2.60;;;;;;;;;;5074432;28;20226;-80
2021/01/20 02:35:40;;;;;;;2.57;2.40;;;;;;;;;;5074048;28;20226;-80
2021/01/20 02:38:07;;;;;;;2.50;2.40;;;;;;;;;;5073966;28;20248;-79
2021/01/20 02:40:33;;;;;;;4.40;2.80;;;;;;;;;;5074609;28;20256;-80
2021/01/20 02:42:59;;;;;;;2.90;2.70;;;;;;;;;;5073130;28;20253;-80
2021/01/20 02:45:26;;;;;;;3.30;2.50;;;;;;;;;;5073846;28;20244;-80
2021/01/20 02:47:53;;;;;;;2.77;2.57;;;;;;;;;;5073597;28;20230;-80
2021/01/20 02:50:20;;;;;;;3.13;2.90;;;;;;;;;;5073787;28;20541;-81
2021/01/20 02:52:48;;;;;;;2.60;2.40;;;;;;;;;;5074124;28;20297;-79
2021/01/20 02:55:15;;;;;;;3.27;2.97;;;;;;;;;;5074102;28;20229;-80
2021/01/20 02:57:42;;;;;;;2.57;2.37;;;;;;;;;;5073999;28;20614;-79
2021/01/20 03:00:09;;;;;;;6.63;3.80;;;;;;;;;;5073795;28;20230;-80
2021/01/20 03:02:36;;;;;;;9.50;4.37;;;;;;;;;;5073897;28;20253;-80
2021/01/20 03:05:03;;;;;;;10.10;4.77;;;;;;;;;;5073917;28;20241;-79
2021/01/20 03:07:30;;;;;;;12.30;5.07;;;;;;;;;;5073786;28;20623;-80
2021/01/20 03:09:57;;;;;;;4.73;3.23;;;;;;;;;;5073819;28;20230;-80
2021/01/20 03:12:24;;;;;;;3.80;2.23;;;;;;;;;;5074003;28;20645;-80
2021/01/20 03:14:51;;;;;;;3.03;2.60;;;;;;;;;;5055857;28;20191;-80
2021/01/20 03:17:18;;;;;;;2.63;2.43;;;;;;;;;;5073913;28;20614;-80
2021/01/20 03:19:44;;;;;;;2.60;2.40;;;;;;;;;;5073201;28;20211;-80
2021/01/20 03:22:11;;;;;;;2.90;2.70;;;;;;;;;;5073867;28;20246;-80
2021/01/20 03:24:37;;;;;;;4.87;2.60;;;;;;;;;;5073479;28;20230;-80
2021/01/20 03:27:03;;;;;;;3.03;2.60;;;;;;;;;;5073862;28;20226;-80
2021/01/20 03:29:29;;;;;;;2.87;2.60;;;;;;;;;;5073159;28;20206;-79
2021/01/20 03:31:55;;;;;;;4.83;2.70;;;;;;;;;;5073810;28;20641;-80
2021/01/20 03:34:21;;;;;;;4.30;2.70;;;;;;;;;;5073927;28;20241;-80
2021/01/20 03:36:47;;;;;;;2.80;2.60;;;;;;;;;;5073789;28;20226;-80
2021/01/20 03:39:14;;;;;;;3.03;2.73;;;;;;;;;;5073792;28;20234;-80
2021/01/20 03:41:40;;;;;;;2.60;2.40;;;;;;;;;;5073621;28;20206;-80
2021/01/20 03:44:06;;;;;;;2.60;2.40;;;;;;;;;;5073265;28;20614;-80
2021/01/20 03:46:32;;;;;;;4.10;2.50;;;;;;;;;;5073409;28;20234;-79
2021/01/20 03:48:59;;;;;;;3.40;2.50;;;;;;;;;;5073028;28;20246;-79
2021/01/20 03:51:28;;;;;;;3.37;2.70;;;;;;;;;;5073156;28;20238;-78
2021/01/20 03:53:54;;;;;;;2.60;2.40;;;;;;;;;;5074773;28;20317;-79
2021/01/20 03:56:21;;;;;;;2.67;2.23;;;;;;;;;;5077038;28;20237;-79
2021/01/20 03:58:47;;;;;;;4.87;2.50;;;;;;;;;;5075838;28;20226;-80
2021/01/20 04:01:13;;;;;;;2.63;2.43;;;;;;;;;;5077316;28;20206;-79
2021/01/20 04:03:40;;;;;;;2.40;2.20;;;;;;;;;;5076888;28;20285;-79
2021/01/20 04:06:06;;;;;;;2.70;2.60;;;;;;;;;;5077053;28;20245;-79
2021/01/20 04:08:32;;;;;;;2.63;2.40;;;;;;;;;;5076976;28;20535;-79
2021/01/20 04:10:58;;;;;;;2.67;2.47;;;;;;;;;;5077212;28;20234;-80
2021/01/20 04:13:25;;;;;;;4.27;3.20;;;;;;;;;;5076806;28;20233;-79
2021/01/20 04:15:51;;;;;;;3.97;2.77;;;;;;;;;;5077160;28;20237;-80
2021/01/20 04:18:17;;;;;;;3.10;2.80;;;;;;;;;;5076401;28;20245;-81
2021/01/20 04:20:43;;;;;;;3.00;2.80;;;;;;;;;;5076910;28;20241;-81
2021/01/20 04:23:09;;;;;;;3.30;3.00;;;;;;;;;;5076450;28;20250;-81
2021/01/20 04:25:35;;;;;;;3.73;2.83;;;;;;;;;;5076909;28;20234;-81
2021/01/20 04:28:01;;;;;;;4.20;2.40;;;;;;;;;;5076669;28;20230;-82
2021/01/20 04:30:28;;;;;;;3.03;2.77;;;;;;;;;;5076751;28;20511;-82
2021/01/20 04:32:55;;;;;;;6.77;3.33;;;;;;;;;;5058033;28;20609;-81
2021/01/20 04:35:21;;;;;;;2.73;2.53;;;;;;;;;;5076121;28;20234;-81
2021/01/20 04:37:47;;;;;;;4.47;2.87;;;;;;;;;;5076188;28;20226;-80
2021/01/20 04:40:13;;;;;;;3.13;2.83;;;;;;;;;;5076599;28;20238;-82
2021/01/20 04:42:39;;;;;;;3.10;2.80;;;;;;;;;;5076264;28;20261;-84
2021/01/20 04:45:06;;;;;;;3.43;3.13;;;;;;;;;;5076583;28;20234;-81
2021/01/20 04:47:33;;;;;;;3.80;3.50;;;;;;;;;;5076371;28;20234;-82
2021/01/20 04:49:59;;;;;;;3.27;2.90;;;;;;;;;;5036235;28;20232;-79
2021/01/20 04:52:26;;;;;;;4.03;3.20;;;;;;;;;;5036579;28;20250;-80
2021/01/20 04:54:53;;;;;;;3.70;3.40;;;;;;;;;;5036726;28;20244;-82
2021/01/20 04:57:21;;;;;;;3.00;2.80;;;;;;;;;;5036409;28;20282;-82
2021/01/20 04:59:48;;;;;;;3.57;3.20;;;;;;;;;;5035522;28;20208;-80
2021/01/20 05:02:15;;;;;;;4.07;3.20;;;;;;;;;;5036649;28;20235;-80
2021/01/20 05:04:42;;;;;;;3.07;2.77;;;;;;;;;;5035972;28;20239;-80
2021/01/20 05:07:08;;;;;;;3.20;2.90;;;;;;;;;;5034989;28;20212;-80
2021/01/20 05:09:34;;;;;;;2.73;2.53;;;;;;;;;;5035877;28;20208;-80
2021/01/20 05:12:01;;;;;;;2.77;2.57;;;;;;;;;;5036169;28;20279;-81
2021/01/20 05:14:27;;;;;;;2.70;2.50;;;;;;;;;;5034660;28;20204;-80
2021/01/20 05:16:54;;;;;;;2.70;2.50;;;;;;;;;;5036204;28;20228;-80
2021/01/20 05:19:34;;;;;;;3.60;2.60;;;;;;;;;;5035404;28;20279;-79
2021/01/20 05:22:04;;;;;;;2.87;2.67;;;;;;;;;;5036216;28;20519;-81
2021/01/20 05:24:31;;;;;;;2.97;2.67;;;;;;;;;;5034463;28;20196;-79
2021/01/20 05:26:57;;;;;;;3.53;2.73;;;;;;;;;;5036003;28;20240;-81
2021/01/20 05:29:23;;;;;;;2.63;2.43;;;;;;;;;;5035845;28;20287;-80
2021/01/20 05:31:49;;;;;;;2.67;2.47;;;;;;;;;;5035846;28;20212;-81
2021/01/20 05:34:22;;;;;;;2.60;2.43;;;;;;;;;;5036140;28;20236;-79
2021/01/20 05:37:00;;;;;;;2.60;2.40;;;;;;;;;;5035836;28;20239;-81
2021/01/20 05:39:27;;;;;;;2.87;2.50;;;;;;;;;;5035611;28;20239;-81
2021/01/20 05:41:58;;;;;;;3.33;2.57;;;;;;;;;;5036024;28;20235;-82
2021/01/20 05:44:25;;;;;;;2.60;2.40;;;;;;;;;;5035779;28;20336;-81
2021/01/20 05:46:51;;;;;;;2.70;2.50;;;;;;;;;;5035709;28;20635;-82
2021/01/20 05:49:21;;;;;;;3.10;2.80;;;;;;;;;;5060795;28;20222;-80
2021/01/20 05:51:47;;;;;;;2.87;2.67;;;;;;;;;;5075348;28;20230;-83
2021/01/20 05:54:13;;;;;;;2.60;2.40;;;;;;;;;;5075107;28;20471;-81
2021/01/20 05:56:40;;;;;;;3.93;2.80;;;;;;;;;;5075307;28;20234;-81
2021/01/20 05:59:10;;;;;;;3.17;2.87;;;;;;;;;;5075164;28;20206;-81
2021/01/20 06:01:36;;;;;;;3.70;2.43;;;;;;;;;;5075444;28;20241;-81
2021/01/20 06:04:04;;;;;;;2.70;2.50;;;;;;;;;;5075177;28;20234;-81
2021/01/20 06:06:30;;;;;;;2.67;2.47;;;;;;;;;;5075089;28;20230;-86
2021/01/20 06:08:57;;;;;;;3.87;2.57;;;;;;;;;;5075201;28;20237;-82
2021/01/20 06:11:23;;;;;;;3.30;2.63;;;;;;;;;;5075028;28;20448;-82
2021/01/20 06:13:50;;;;;;;3.17;2.60;;;;;;;;;;5074768;28;20234;-84
2021/01/20 06:16:17;;;;;;;2.93;2.73;;;;;;;;;;5056497;28;20202;-81
2021/01/20 06:18:47;;;;;;;3.13;2.23;;;;;;;;;;5072995;28;20227;-80
2021/01/20 06:21:14;;;;;;;2.63;2.43;;;;;;;;;;5073816;28;20206;-80
2021/01/20 06:23:44;;;;;;;2.93;2.40;;;;;;;;;;5074005;28;20258;-80
2021/01/20 06:26:13;;;;;;;3.53;2.30;;;;;;;;;;5074728;28;20214;-82
2021/01/20 06:28:39;;;;;;;2.70;2.50;;;;;;;;;;5074147;28;20234;-80
2021/01/20 06:31:07;;;;;;;3.10;2.90;;;;;;;;;;5073572;28;21102;-81
2021/01/20 06:33:33;;;;;;;2.67;2.47;;;;;;;;;;5074156;28;20222;-82
2021/01/20 06:35:59;;;;;;;2.70;2.50;;;;;;;;;;5074999;28;20694;-81
2021/01/20 06:38:32;;;;;;;2.47;2.20;;;;;;;;;;5074135;28;20237;-81
2021/01/20 06:40:59;;;;;;;2.73;2.53;;;;;;;;;;5074107;28;20615;-80
2021/01/20 06:43:35;;;;;;;2.60;2.40;;;;;;;;;;5074150;28;20601;-81
2021/01/20 06:46:13;;;;;;;2.77;2.50;;;;;;;;;;5074520;28;20217;-81
2021/01/20 06:48:54;;;;;;;2.93;2.60;;;;;;;;;;5073648;28;20552;-81
2021/01/20 06:51:20;;;;;;;2.40;2.17;;;;;;;;;;5073208;28;20206;-81
2021/01/20 06:54:06;;;;;;;2.50;2.30;;;;;;;;;;5074238;28;20198;-80
2021/01/20 06:56:33;;;;;;;2.57;2.30;;;;;;;;;;5074481;28;20235;-80
2021/01/20 06:59:15;;;;;;;2.20;2.10;;;;;;;;;;5073764;28;20234;-79
2021/01/20 07:01:42;;;;;;;2.33;2.17;;;;;;;;;;5074245;28;20237;-81
2021/01/20 07:04:08;;;;;;;3.67;2.30;;;;;;;;;;5074284;28;20226;-80
2021/01/20 07:06:43;;;;;;;2.17;2.07;;;;;;;;;;5074173;28;20641;-81
2021/01/20 07:09:11;;;;;;;3.23;2.93;;;;;;;;;;5054928;28;20238;-81
2021/01/20 07:11:59;;;;;;;2.27;2.17;;;;;;;;;;5053853;28;20231;-80
2021/01/20 07:14:26;;;;;;;2.60;2.40;;;;;;;;;;5053119;28;20234;-80
2021/01/20 07:16:53;;;;;;;3.00;2.67;;;;;;;;;;5053574;28;20318;-80
2021/01/20 07:19:19;;;;;;;3.50;2.90;;;;;;;;;;5053706;28;20235;-79
2021/01/20 07:21:45;;;;;;;3.27;2.97;;;;;;;;;;5054493;28;20488;-80
2021/01/20 07:24:12;;;;;;;3.20;2.90;;;;;;;;;;5054201;28;20299;-79
2021/01/20 07:26:39;;;;;;;2.60;2.40;;;;;;;;;;5054057;28;20235;-78
2021/01/20 07:29:13;;;;;;;2.47;2.30;;;;;;;;;;5055494;28;20458;-80
2021/01/20 07:31:43;;;;;;;3.05;2.83;;;;;;;;;;5057351;28;20811;-78
2021/01/20 07:34:10;;;;;;;4.00;2.40;;;;;;;;;;5039945;28;20469;-79
2021/01/20 07:36:36;;;;;;;2.97;2.50;;;;;;;;;;5057889;28;20230;-79
2021/01/20 07:39:03;;;;;;;2.93;2.67;;;;;;;;;;5057452;28;20235;-79
2021/01/20 07:41:29;;;;;;;4.13;3.40;;;;;;;;;;5057750;28;20214;-79
2021/01/20 07:44:05;;;;;;;4.13;3.70;;;;;;;;;;5057516;28;20945;-78
2021/01/20 07:46:31;;;;;;;3.97;3.17;;;;;;;;;;5057826;28;20246;-79
2021/01/20 07:49:09;;;;;;;3.90;3.07;;;;;;;;;;5057450;28;20250;-79
2021/01/20 07:51:36;;;;;;;2.90;2.53;;;;;;;;;;5057600;28;20275;-79
2021/01/20 07:54:03;;;;;;;3.03;2.60;;;;;;;;;;5057690;28;20207;-79
2021/01/20 07:56:29;;;;;;;2.67;2.47;;;;;;;;;;5057577;28;20234;-78
2021/01/20 07:58:55;;;;;;;2.60;2.13;;;;;;;;;;5039405;28;20211;-79
2021/01/20 08:01:25;;;;;;;3.40;2.17;;;;;;;;;;5057718;28;20239;-78
2021/01/20 08:03:51;;;;;;;3.03;2.33;;;;;;;;;;5057323;28;20243;-78
2021/01/20 08:06:18;;;;;;;2.23;2.00;;;;;;;;;;5057403;28;20643;-79
2021/01/20 08:08:51;;;;;;;2.10;2.00;;;;;;;;;;5070516;28;20242;-80
2021/01/20 08:11:17;;;;;;;2.50;2.30;;;;;;;;;;5076790;28;20207;-79
2021/01/20 08:13:44;;;;;;;3.37;2.47;;;;;;;;;;5076597;28;20234;-79
2021/01/20 08:16:10;;;;;;;5.70;2.27;;;;;;;;;;5077193;28;20230;-79
2021/01/20 08:18:36;;;;;;;2.67;2.43;;;;;;;;;;5076853;28;20238;-78
2021/01/20 08:21:06;;;;;;;2.27;2.10;;;;;;;;;;5077095;28;20238;-78
2021/01/20 08:23:37;;;;;;;2.30;2.20;;;;;;;;;;5057303;28;20264;-79
2021/01/20 08:26:07;;;;;;;2.83;2.20;;;;;;;;;;5077139;28;20237;-79
2021/01/20 08:28:34;;;;;;;2.13;1.93;;;;;;;;;;5058967;28;20601;-78
2021/01/20 08:31:15;;;;;;;3.43;1.90;;;;;;;;;;5077047;28;20272;-78
2021/01/20 08:33:43;;;;;;;2.57;2.37;;;;;;;;;;5075675;28;20203;-80
2021/01/20 08:36:09;;;;;;;2.97;2.50;;;;;;;;;;5077064;28;20206;-78
2021/01/20 08:38:35;;;;;;;2.17;2.03;;;;;;;;;;5076392;28;20249;-79
2021/01/20 08:41:12;;;;;;;2.20;2.10;;;;;;;;;;5076795;28;20260;-78
2021/01/20 08:43:38;;;;;;;2.60;2.40;;;;;;;;;;5076469;28;20634;-80
2021/01/20 08:46:23;;;;;;;2.77;2.57;;;;;;;;;;5076230;28;20233;-79
2021/01/20 08:48:56;;;;;;;2.30;2.17;;;;;;;;;;5072589;28;20253;-79
2021/01/20 08:51:22;;;;;;;2.93;2.20;;;;;;;;;;5073623;28;20238;-79
2021/01/20 08:53:48;;;;;;;2.40;2.23;;;;;;;;;;5073608;28;20230;-79
2021/01/20 08:56:24;;;;;;;2.50;2.23;;;;;;;;;;5073467;28;20234;-78
2021/01/20 08:58:54;;;;;;;2.17;2.07;;;;;;;;;;5073217;28;20638;-79
2021/01/20 09:01:23;;;;;;;2.50;2.13;;;;;;;;;;5073515;28;20238;-80
2021/01/20 09:03:54;;;;;;;2.70;2.50;;;;;;;;;;5054791;28;20590;-81
2021/01/20 09:06:20;;;;;;;2.50;2.30;;;;;;;;;;5073506;28;20234;-79
2021/01/20 09:08:46;;;;;;;2.83;2.63;;;;;;;;;;5058754;28;20292;-79
2021/01/20 09:11:12;;;;;;;3.40;3.00;;;;;;;;;;5053540;28;20542;-79
2021/01/20 09:13:39;;;;;;;4.63;3.33;;;;;;;;;;5054511;28;20234;-78
2021/01/20 09:16:07;;;;;;;13.03;2.90;;;;;;;;;;5056058;28;20231;-81
2021/01/20 09:18:33;;;;;;;3.23;2.93;;;;;;;;;;5055652;28;20226;-80
2021/01/20 09:21:00;;;;;;;3.07;2.87;;;;;;;;;;5056098;28;20254;-78
2021/01/20 09:23:26;;;;;;;3.47;3.17;;;;;;;;;;5055782;28;20251;-78
2021/01/20 09:25:53;;;;;;;3.33;3.00;;;;;;;;;;5056116;28;20203;-78
2021/01/20 09:28:20;;;;;;;4.53;3.27;;;;;;;;;;5055377;28;20238;-78
2021/01/20 09:30:47;;;;;;;3.70;3.40;;;;;;;;;;5055906;28;20246;-79
2021/01/20 09:33:13;;;;;;;3.30;2.93;;;;;;;;;;5055706;28;20527;-78
2021/01/20 09:35:39;;;;;;;4.80;2.97;;;;;;;;;;5056218;28;20504;-78
2021/01/20 09:38:06;;;;;;;3.00;2.80;;;;;;;;;;5055216;28;20246;-78
2021/01/20 09:40:32;;;;;;;3.30;3.00;;;;;;;;;;5055582;28;20203;-79
2021/01/20 09:42:59;;;;;;;3.00;2.80;;;;;;;;;;5055395;28;20231;-79
2021/01/20 09:45:27;;;;;;;3.40;3.10;;;;;;;;;;5055136;28;20576;-79
2021/01/20 09:47:54;;;;;;;3.33;3.00;;;;;;;;;;5055045;28;20227;-78
2021/01/20 09:50:20;;;;;;;3.30;2.90;;;;;;;;;;5055284;28;20242;-79
2021/01/20 09:52:47;;;;;;;3.93;3.37;;;;;;;;;;5054882;28;20254;-78
2021/01/20 09:55:14;;;;;;;3.30;3.00;;;;;;;;;;5055419;28;20257;-79
2021/01/20 09:57:40;;;;;;;3.23;2.93;;;;;;;;;;5055375;28;20535;-79
2021/01/20 10:00:07;;;;;;;4.10;3.07;;;;;;;;;;5055817;28;20235;-80
2021/01/20 10:02:33;;;;;;;3.10;2.73;;;;;;;;;;5055219;28;20234;-80
2021/01/20 10:05:00;;;;;;;3.30;2.57;;;;;;;;;;5055134;28;20250;-79
2021/01/20 10:07:26;;;;;;;2.67;2.40;;;;;;;;;;5057843;28;20596;-78
2021/01/20 10:09:52;;;;;;;2.73;2.47;;;;;;;;;;5074706;28;20241;-81
2021/01/20 10:12:18;;;;;;;5.27;2.40;;;;;;;;;;5074931;28;20206;-79
2021/01/20 10:14:45;;;;;;;3.13;2.43;;;;;;;;;;5075158;28;20317;-78
2021/01/20 10:17:11;;;;;;;6.30;3.73;;;;;;;;;;5074831;28;20274;-79
2021/01/20 10:19:37;;;;;;;5.13;2.53;;;;;;;;;;5074696;28;20456;-79
2021/01/20 10:22:04;;;;;;;2.47;2.27;;;;;;;;;;5075037;28;20254;-79
2021/01/20 10:24:30;;;;;;;2.83;2.50;;;;;;;;;;5074406;28;20249;-79
2021/01/20 10:26:57;;;;;;;4.33;2.13;;;;;;;;;;5075006;28;20787;-80
2021/01/20 10:29:24;;;;;;;3.83;3.20;;;;;;;;;;5074071;28;20226;-78
2021/01/20 10:31:50;;;;;;;5.40;2.70;;;;;;;;;;5074816;28;20241;-78
2021/01/20 10:34:16;;;;;;;3.93;2.70;;;;;;;;;;5074767;28;20226;-78
2021/01/20 10:36:42;;;;;;;2.87;2.60;;;;;;;;;;5074708;28;20516;-79
2021/01/20 10:39:10;;;;;;;4.07;2.60;;;;;;;;;;5074185;28;20230;-79
2021/01/20 10:41:36;;;;;;;3.67;2.60;;;;;;;;;;5074443;28;20238;-80
2021/01/20 10:44:03;;;;;;;7.93;4.03;;;;;;;;;;5072731;28;20626;-79
2021/01/20 10:46:29;;;;;;;4.97;2.70;;;;;;;;;;5065612;28;20234;-78
2021/01/20 10:48:57;;;;;;;3.10;2.80;;;;;;;;;;5074022;28;20253;-78
2021/01/20 10:51:23;;;;;;;4.63;2.90;;;;;;;;;;5074552;28;20229;-78
2021/01/20 10:53:50;;;;;;;5.33;3.00;;;;;;;;;;5074321;28;20243;-78
2021/01/20 10:56:17;;;;;;;4.83;3.10;;;;;;;;;;5074768;28;20207;-78
2021/01/20 10:58:43;;;;;;;2.93;2.73;;;;;;;;;;5074094;28;20234;-78
2021/01/20 11:01:10;;;;;;;4.67;2.80;;;;;;;;;;5074129;28;20234;-78
2021/01/20 11:03:38;;;;;;;3.50;3.20;;;;;;;;;;5072732;28;20246;-81
2021/01/20 11:06:04;;;;;;;6.13;3.30;;;;;;;;;;5074084;28;20218;-78
2021/01/20 11:08:30;;;;;;;3.23;2.93;;;;;;;;;;5073782;28;20214;-78
2021/01/20 11:10:56;;;;;;;3.33;3.00;;;;;;;;;;5074206;28;20234;-78
2021/01/20 11:13:23;;;;;;;10.03;3.20;;;;;;;;;;5073641;28;20237;-78
2021/01/20 11:15:50;;;;;;;2.53;2.33;;;;;;;;;;5056066;28;20226;-81
2021/01/20 11:18:17;;;;;;;3.07;2.53;;;;;;;;;;5072962;28;20627;-78
2021/01/20 11:20:43;;;;;;;3.30;3.03;;;;;;;;;;5073716;28;20237;-78
2021/01/20 11:23:10;;;;;;;7.30;3.10;;;;;;;;;;5074109;28;20226;-78
2021/01/20 11:25:37;;;;;;;2.57;2.37;;;;;;;;;;5074212;28;20242;-78
2021/01/20 11:28:03;;;;;;;5.17;2.87;;;;;;;;;;5073612;28;20618;-79
2021/01/20 11:30:30;;;;;;;3.13;2.27;;;;;;;;;;5073637;28;20246;-79
2021/01/20 11:32:56;;;;;;;3.93;3.50;;;;;;;;;;5073815;28;20206;-79
2021/01/20 11:35:22;;;;;;;3.70;3.37;;;;;;;;;;5074139;28;20233;-78
2021/01/20 11:37:48;;;;;;;4.07;3.67;;;;;;;;;;5074117;28;20246;-78
2021/01/20 11:40:14;;;;;;;2.70;2.50;;;;;;;;;;5073743;28;20237;-77
2021/01/20 11:42:41;;;;;;;3.30;2.20;;;;;;;;;;5073583;28;20226;-79
2021/01/20 11:45:07;;;;;;;2.87;2.20;;;;;;;;;;5073882;28;20250;-78
2021/01/20 11:47:36;;;;;;;4.17;2.30;;;;;;;;;;5073677;28;20524;-79
2021/01/20 11:50:02;;;;;;;2.40;2.20;;;;;;;;;;5072949;28;20256;-79
2021/01/20 11:52:28;;;;;;;2.77;2.40;;;;;;;;;;5073531;28;20246;-82
2021/01/20 11:54:54;;;;;;;3.93;2.40;;;;;;;;;;5055658;28;20229;-84
2021/01/20 11:57:20;;;;;;;3.23;2.50;;;;;;;;;;5073692;28;20253;-83
2021/01/20 11:59:46;;;;;;;2.60;2.20;;;;;;;;;;5073985;28;20202;-83
2021/01/20 12:02:12;;;;;;;2.10;2.00;;;;;;;;;;5073147;28;20578;-80
2021/01/20 12:04:39;;;;;;;2.60;2.40;;;;;;;;;;5072990;28;20258;-82
2021/01/20 12:07:06;;;;;;;2.83;2.10;;;;;;;;;;5073533;28;20235;-83
2021/01/20 12:09:32;;;;;;;3.17;2.10;;;;;;;;;;5073489;28;20230;-84
2021/01/20 12:11:58;;;;;;;2.40;2.20;;;;;;;;;;5060561;28;20200;-83
2021/01/20 12:14:24;;;;;;;3.88;2.60;;;;;;;;;;5053373;28;20798;-83
2021/01/20 12:16:50;;;;;;;4.47;2.27;;;;;;;;;;5057382;28;20235;-84
2021/01/20 12:19:16;;;;;;;2.50;2.30;;;;;;;;;;5039410;28;20222;-83
2021/01/20 12:21:43;;;;;;;2.40;2.20;;;;;;;;;;5056608;28;20548;-84
2021/01/20 12:24:09;;;;;;;2.90;2.50;;;;;;;;;;5038841;28;20262;-84
2021/01/20 12:26:35;;;;;;;2.63;2.43;;;;;;;;;;5057105;28;20702;-84
2021/01/20 12:29:01;;;;;;;2.90;2.67;;;;;;;;;;5056961;28;20238;-84
2021/01/20 12:31:27;;;;;;;3.00;2.10;;;;;;;;;;5056828;28;20551;-83
2021/01/20 12:33:53;;;;;;;2.03;1.93;;;;;;;;;;5056834;28;20245;-86
2021/01/20 12:36:22;;;;;;;2.30;2.10;;;;;;;;;;5057512;28;20310;-85
2021/01/20 12:38:48;;;;;;;3.23;2.50;;;;;;;;;;5057563;28;20202;-85
2021/01/20 12:41:15;;;;;;;2.07;1.90;;;;;;;;;;5057233;28;20222;-84
2021/01/20 12:43:41;;;;;;;2.97;2.60;;;;;;;;;;5056826;28;20246;-85
2021/01/20 12:46:07;;;;;;;2.30;2.20;;;;;;;;;;5057720;28;20203;-84
2021/01/20 12:48:33;;;;;;;3.10;2.73;;;;;;;;;;5029761;28;20298;-85
2021/01/20 12:51:00;;;;;;;7.00;2.20;;;;;;;;;;5017440;28;20617;-84
2021/01/20 12:53:26;;;;;;;3.27;2.90;;;;;;;;;;5016662;28;20237;-84
2021/01/20 12:55:53;;;;;;;2.83;2.40;;;;;;;;;;5026342;28;20235;-85
2021/01/20 12:58:19;;;;;;;3.50;2.43;;;;;;;;;;5041311;28;20180;-85
2021/01/20 13:00:45;;;;;;;3.37;2.60;;;;;;;;;;5044745;28;20199;-89
2021/01/20 13:03:11;;;;;;;3.10;2.63;;;;;;;;;;5033927;28;20205;-86
2021/01/20 13:05:37;;;;;;;4.10;2.60;;;;;;;;;;5034656;28;20247;-84
2021/01/20 13:08:04;;;;;;;2.23;2.13;;;;;;;;;;5037852;28;20227;-88
2021/01/20 13:10:30;;;;;;;2.70;2.50;;;;;;;;;;5036961;28;20208;-87
2021/01/20 13:12:57;;;;;;;3.10;2.50;;;;;;;;;;5037295;28;20212;-87
2021/01/20 13:15:24;;;;;;;3.43;2.50;;;;;;;;;;5037809;28;20199;-86
2021/01/20 13:17:51;;;;;;;3.30;2.37;;;;;;;;;;5037235;28;20577;-87
2021/01/20 13:20:17;;;;;;;3.13;2.20;;;;;;;;;;5038088;28;20192;-87
2021/01/20 13:22:43;;;;;;;3.17;2.40;;;;;;;;;;5036185;28;20200;-87
2021/01/20 13:25:10;;;;;;;3.07;2.40;;;;;;;;;;5038249;28;20263;-86
2021/01/20 13:27:36;;;;;;;3.63;2.33;;;;;;;;;;5036809;28;20683;-87
2021/01/20 13:30:03;;;;;;;3.97;2.37;;;;;;;;;;5036439;28;20479;-87
2021/01/20 13:32:30;;;;;;;2.70;2.50;;;;;;;;;;5037296;28;20620;-88
2021/01/20 13:34:56;;;;;;;4.83;2.50;;;;;;;;;;5036246;28;20682;-87
2021/01/20 13:37:22;;;;;;;3.43;2.50;;;;;;;;;;5039132;28;20215;-85
2021/01/20 13:39:48;;;;;;;3.40;2.63;;;;;;;;;;5042737;28;20197;-88
2021/01/20 13:42:14;;;;;;;2.60;2.40;;;;;;;;;;5033540;28;20200;-88
2021/01/20 13:44:40;;;;;;;6.17;2.80;;;;;;;;;;5033341;28;20240;-89
2021/01/20 13:47:07;;;;;;;3.97;3.50;;;;;;;;;;5022235;28;20203;-88
2021/01/20 13:49:33;;;;;;;6.17;4.67;;;;;;;;;;5067507;28;20226;-89
2021/01/20 13:52:00;;;;;;;9.90;4.87;;;;;;;;;;5060114;28;20207;-86
2021/01/20 13:54:26;;;;;;;6.23;4.83;;;;;;;;;;5075744;28;20206;-85
2021/01/20 13:56:53;;;;;;;5.07;4.10;;;;;;;;;;5041501;28;20214;-88
2021/01/20 13:59:19;;;;;;;4.23;3.23;;;;;;;;;;5073004;28;20194;-87
2021/01/20 14:01:45;;;;;;;3.43;3.13;;;;;;;;;;5075426;28;20225;-85
2021/01/20 14:04:12;;;;;;;3.30;3.00;;;;;;;;;;5074851;28;20603;-87
2021/01/20 14:06:38;;;;;;;2.90;2.70;;;;;;;;;;5075648;28;20213;-86
2021/01/20 14:09:04;;;;;;;5.17;2.93;;;;;;;;;;5075821;28;20203;-87
2021/01/20 14:11:30;;;;;;;3.40;2.70;;;;;;;;;;5076228;28;20237;-85
2021/01/20 14:13:56;;;;;;;4.50;3.03;;;;;;;;;;5075128;28;20229;-82
2021/01/20 14:16:22;;;;;;;3.70;2.77;;;;;;;;;;5075327;28;20260;-81
2021/01/20 14:18:48;;;;;;;3.23;3.03;;;;;;;;;;5075284;28;20556;-81
2021/01/20 14:21:15;;;;;;;5.03;3.03;;;;;;;;;;5075752;28;20233;-90
2021/01/20 14:23:42;;;;;;;3.43;3.00;;;;;;;;;;5062826;28;20274;-82
2021/01/20 14:26:08;;;;;;;4.37;3.10;;;;;;;;;;5056077;28;20250;-93
2021/01/20 14:28:35;;;;;;;3.63;3.23;;;;;;;;;;5069763;28;20234;-92
2021/01/20 14:31:01;;;;;;;4.23;3.07;;;;;;;;;;5075890;28;20222;-82
2021/01/20 14:33:27;;;;;;;5.83;3.30;;;;;;;;;;5074490;28;20226;-85
2021/01/20 14:35:54;;;;;;;3.63;3.33;;;;;;;;;;5057414;28;20225;-86
2021/01/20 14:38:21;;;;;;;3.20;3.00;;;;;;;;;;5075146;28;20207;-86
2021/01/20 14:40:47;;;;;;;3.10;2.90;;;;;;;;;;5075222;28;20206;-82
2021/01/20 14:43:13;;;;;;;5.07;3.50;;;;;;;;;;5074496;28;20272;-83